createdAt,value
2023-09-17T00:01:44.974Z,6.88
2023-09-17T00:04:12.019Z,6.32
2023-09-17T00:06:39.234Z,6.13
2023-09-17T00:09:06.133Z,7.10
2023-09-17T00:11:33.060Z,6.40
2023-09-17T00:13:59.962Z,6.90
2023-09-17T00:16:32.450Z,6.78
2023-09-17T00:18:59.970Z,6.47
2023-09-17T00:21:26.836Z,6.40
2023-09-17T00:23:53.684Z,6.72
2023-09-17T00:26:20.613Z,6.13
2023-09-17T00:28:47.478Z,7.07
2023-09-17T00:31:14.484Z,6.82
2023-09-17T00:33:41.420Z,6.25
2023-09-17T00:36:08.384Z,6.20
2023-09-17T00:38:35.303Z,6.38
2023-09-17T00:41:02.156Z,6.43
2023-09-17T00:43:29.089Z,6.70
2023-09-17T00:45:56.112Z,7.03
2023-09-17T00:48:23.556Z,6.50
2023-09-17T00:50:50.586Z,6.70
2023-09-17T00:53:17.551Z,6.32
2023-09-17T00:55:44.648Z,6.95
2023-09-17T00:58:11.752Z,6.53
2023-09-17T01:00:39.918Z,6.38
2023-09-17T01:03:08.597Z,6.70
2023-09-17T01:05:40.339Z,6.82
2023-09-17T01:08:11.282Z,6.53
2023-09-17T01:10:42.304Z,6.65
2023-09-17T01:13:10.356Z,6.30
2023-09-17T01:15:38.928Z,6.50
2023-09-17T01:18:07.509Z,6.20
2023-09-17T01:21:04.395Z,6.28
2023-09-17T01:23:39.836Z,6.60
2023-09-17T01:26:18.055Z,6.18
2023-09-17T01:28:45.205Z,5.75
2023-09-17T01:31:13.619Z,6.50
2023-09-17T01:33:40.640Z,7.07
2023-09-17T01:36:12.612Z,6.80
2023-09-17T01:38:48.059Z,6.78
2023-09-17T01:41:16.853Z,6.30
2023-09-17T01:43:45.845Z,6.32
2023-09-17T01:46:13.309Z,6.75
2023-09-17T01:48:43.927Z,6.53
2023-09-17T01:51:12.677Z,6.20
2023-09-17T01:53:40.053Z,6.43
2023-09-17T01:56:07.035Z,6.25
2023-09-17T01:58:35.312Z,6.22
2023-09-17T02:01:02.485Z,6.32
2023-09-17T02:03:30.434Z,6.20
2023-09-17T02:05:57.974Z,6.03
2023-09-17T02:08:25.056Z,6.22
2023-09-17T02:10:51.970Z,6.65
2023-09-17T02:13:18.912Z,6.05
2023-09-17T02:15:46.509Z,6.43
2023-09-17T02:18:13.704Z,6.20
2023-09-17T02:20:41.378Z,6.90
2023-09-17T02:23:10.620Z,6.55
2023-09-17T02:25:37.731Z,6.63
2023-09-17T02:28:05.059Z,6.88
2023-09-17T02:30:32.310Z,6.57
2023-09-17T02:32:59.358Z,6.40
2023-09-17T02:35:26.467Z,6.60
2023-09-17T02:37:53.547Z,6.50
2023-09-17T02:40:21.280Z,5.75
2023-09-17T02:42:49.519Z,6.07
2023-09-17T02:45:16.638Z,6.72
2023-09-17T02:47:43.557Z,6.57
2023-09-17T02:50:11.068Z,6.60
2023-09-17T02:52:39.336Z,6.13
2023-09-17T02:55:06.678Z,7.05
2023-09-17T02:57:33.808Z,6.88
2023-09-17T03:00:00.759Z,6.57
2023-09-17T03:02:27.798Z,7.10
2023-09-17T03:04:57.678Z,6.80
2023-09-17T03:07:25.817Z,7.07
2023-09-17T03:09:52.858Z,6.78
2023-09-17T03:12:19.710Z,6.88
2023-09-17T03:14:47.058Z,6.82
2023-09-17T03:17:14.139Z,6.40
2023-09-17T03:19:41.786Z,6.50
2023-09-17T03:22:08.838Z,6.88
2023-09-17T03:24:36.059Z,6.65
2023-09-17T03:27:02.972Z,7.20
2023-09-17T03:29:29.877Z,7.07
2023-09-17T03:31:56.904Z,6.80
2023-09-17T03:34:23.866Z,6.93
2023-09-17T03:36:52.064Z,6.97
2023-09-17T03:39:19.030Z,7.15
2023-09-17T03:41:45.922Z,6.35
2023-09-17T03:44:12.789Z,7.30
2023-09-17T03:46:39.883Z,6.47
2023-09-17T03:49:07.230Z,6.78
2023-09-17T03:51:34.453Z,7.50
2023-09-17T03:54:01.730Z,6.78
2023-09-17T03:56:28.880Z,7.07
2023-09-17T03:58:55.929Z,7.13
2023-09-17T04:01:23.051Z,7.07
2023-09-17T04:03:50.396Z,6.10
2023-09-17T04:06:17.644Z,6.93
2023-09-17T04:08:44.669Z,6.43
2023-09-17T04:11:16.990Z,6.35
2023-09-17T04:13:44.990Z,6.75
2023-09-17T04:16:13.635Z,6.35
2023-09-17T04:18:40.747Z,6.82
2023-09-17T04:21:07.677Z,6.93
2023-09-17T04:23:34.689Z,6.47
2023-09-17T04:26:01.966Z,6.57
2023-09-17T04:28:28.935Z,6.57
2023-09-17T04:30:56.028Z,7.13
2023-09-17T04:33:24.034Z,6.97
2023-09-17T04:35:57.508Z,7.18
2023-09-17T04:38:24.677Z,6.57
2023-09-17T04:40:51.639Z,7.10
2023-09-17T04:43:20.902Z,7.10
2023-09-17T04:45:47.934Z,7.18
2023-09-17T04:48:17.431Z,6.88
2023-09-17T04:50:47.947Z,6.43
2023-09-17T04:53:15.614Z,6.40
2023-09-17T04:55:42.647Z,6.80
2023-09-17T04:58:09.557Z,6.70
2023-09-17T05:00:38.154Z,6.57
2023-09-17T05:03:05.398Z,7.07
2023-09-17T05:05:32.381Z,7.15
2023-09-17T05:07:59.393Z,6.68
2023-09-17T05:10:27.256Z,6.95
2023-09-17T05:12:54.496Z,6.60
2023-09-17T05:15:22.597Z,6.55
2023-09-17T05:17:50.408Z,6.50
2023-09-17T05:20:19.576Z,6.82
2023-09-17T05:22:46.690Z,6.30
2023-09-17T05:25:13.592Z,6.30
2023-09-17T05:27:40.463Z,6.53
2023-09-17T05:30:08.100Z,7.03
2023-09-17T05:32:35.287Z,6.65
2023-09-17T05:35:04.480Z,6.95
2023-09-17T05:37:32.488Z,6.28
2023-09-17T05:39:59.934Z,6.25
2023-09-17T05:42:26.794Z,6.55
2023-09-17T05:44:53.954Z,6.35
2023-09-17T05:47:20.995Z,6.63
2023-09-17T05:49:47.935Z,6.47
2023-09-17T05:52:14.835Z,6.45
2023-09-17T05:54:41.642Z,6.68
2023-09-17T05:57:08.489Z,6.57
2023-09-17T05:59:35.618Z,6.85
2023-09-17T06:02:02.598Z,6.68
2023-09-17T06:04:29.629Z,6.72
2023-09-17T06:06:56.502Z,6.60
2023-09-17T06:09:23.470Z,6.35
2023-09-17T06:11:51.575Z,7.00
2023-09-17T06:14:18.779Z,6.53
2023-09-17T06:16:56.756Z,6.60
2023-09-17T06:19:25.647Z,6.57
2023-09-17T06:21:54.273Z,6.55
2023-09-17T06:24:21.133Z,6.30
2023-09-17T06:26:48.146Z,6.10
2023-09-17T06:29:14.993Z,6.68
2023-09-17T06:31:42.273Z,6.90
2023-09-17T06:34:10.784Z,6.90
2023-09-17T06:36:38.415Z,6.30
2023-09-17T06:39:07.181Z,6.30
2023-09-17T06:41:36.866Z,6.72
2023-09-17T06:44:05.309Z,6.13
2023-09-17T06:46:32.672Z,6.80
2023-09-17T06:49:01.897Z,6.30
2023-09-17T06:51:28.796Z,6.90
2023-09-17T06:53:55.692Z,6.70
2023-09-17T06:56:25.161Z,6.40
2023-09-17T06:58:52.380Z,6.47
2023-09-17T07:01:20.407Z,6.18
2023-09-17T07:03:48.291Z,6.57
2023-09-17T07:06:15.309Z,6.40
2023-09-17T07:08:42.248Z,6.60
2023-09-17T07:11:09.187Z,6.13
2023-09-17T07:13:36.103Z,6.00
2023-09-17T07:16:03.052Z,6.55
2023-09-17T07:18:32.917Z,6.50
2023-09-17T07:21:00.133Z,6.68
2023-09-17T07:23:27.108Z,6.53
2023-09-17T07:25:55.152Z,6.50
2023-09-17T07:28:22.134Z,7.00
2023-09-17T07:30:55.716Z,6.00
2023-09-17T07:33:22.829Z,6.95
2023-09-17T07:35:49.747Z,6.65
2023-09-17T07:38:17.324Z,6.65
2023-09-17T07:40:44.434Z,6.95
2023-09-17T07:43:12.102Z,6.95
2023-09-17T07:45:39.040Z,7.00
2023-09-17T07:48:06.196Z,6.95
2023-09-17T07:50:33.213Z,6.88
2023-09-17T07:53:00.845Z,6.95
2023-09-17T07:55:27.872Z,6.20
2023-09-17T07:57:56.107Z,7.03
2023-09-17T08:00:23.200Z,7.15
2023-09-17T08:02:50.502Z,7.07
2023-09-17T08:05:18.989Z,7.25
2023-09-17T08:07:46.990Z,7.10
2023-09-17T08:10:14.019Z,7.38
2023-09-17T08:12:40.942Z,7.00
2023-09-17T08:15:08.859Z,7.22
2023-09-17T08:17:35.802Z,6.93
2023-09-17T08:20:02.776Z,7.47
2023-09-17T08:22:30.613Z,7.05
2023-09-17T08:24:57.500Z,6.82
2023-09-17T08:27:24.387Z,7.00
2023-09-17T08:29:51.353Z,7.25
2023-09-17T08:32:18.289Z,7.00
2023-09-17T08:34:45.159Z,7.07
2023-09-17T08:37:12.025Z,7.50
2023-09-17T08:39:38.879Z,6.90
2023-09-17T08:42:06.250Z,7.13
2023-09-17T08:44:37.178Z,7.35
2023-09-17T08:47:04.355Z,6.82
2023-09-17T08:49:31.347Z,6.60
2023-09-17T08:52:03.226Z,6.78
2023-09-17T08:54:45.004Z,6.38
2023-09-17T08:57:15.361Z,6.82
2023-09-17T08:59:46.743Z,6.38
2023-09-17T09:02:30.625Z,6.53
2023-09-17T09:04:59.009Z,6.40
2023-09-17T09:07:26.988Z,6.03
2023-09-17T09:09:54.243Z,6.13
2023-09-17T09:12:22.203Z,6.40
2023-09-17T09:14:49.524Z,6.22
2023-09-17T09:17:16.443Z,5.88
2023-09-17T09:19:43.482Z,5.82
2023-09-17T09:22:10.591Z,5.75
2023-09-17T09:24:49.210Z,5.43
2023-09-17T09:27:16.480Z,5.00
2023-09-17T09:29:46.183Z,5.63
2023-09-17T09:32:13.991Z,5.47
2023-09-17T09:34:44.819Z,5.38
2023-09-17T09:37:12.013Z,5.40
2023-09-17T09:39:39.675Z,5.80
2023-09-17T09:42:07.608Z,5.15
2023-09-17T09:44:36.278Z,5.45
2023-09-17T09:47:03.939Z,6.25
2023-09-17T09:49:43.749Z,5.90
2023-09-17T09:52:13.678Z,5.93
2023-09-17T09:54:44.777Z,6.00
2023-09-17T09:57:17.151Z,5.80
2023-09-17T09:59:46.897Z,5.70
2023-09-17T10:02:16.798Z,5.50
2023-09-17T10:04:45.512Z,5.95
2023-09-17T10:07:15.157Z,5.65
2023-09-17T10:09:42.649Z,6.00
2023-09-17T10:12:09.971Z,5.85
2023-09-17T10:14:38.714Z,5.30
2023-09-17T10:17:11.651Z,5.63
2023-09-17T10:19:40.513Z,5.70
2023-09-17T10:22:10.450Z,5.20
2023-09-17T10:24:38.482Z,5.43
2023-09-17T10:27:07.741Z,5.78
2023-09-17T10:29:37.013Z,5.80
2023-09-17T10:32:05.146Z,5.40
2023-09-17T10:34:39.435Z,5.03
2023-09-17T10:37:07.458Z,5.32
2023-09-17T10:39:34.878Z,6.20
2023-09-17T10:42:04.160Z,5.35
2023-09-17T10:44:32.018Z,5.20
2023-09-17T10:47:02.617Z,5.70
2023-09-17T10:49:33.066Z,5.50
2023-09-17T10:52:00.573Z,5.97
2023-09-17T10:54:27.639Z,5.80
2023-09-17T10:56:56.963Z,5.55
2023-09-17T10:59:24.954Z,5.95
2023-09-17T11:01:53.384Z,5.57
2023-09-17T11:04:23.801Z,5.65
2023-09-17T11:06:53.389Z,5.93
2023-09-17T11:09:21.425Z,5.43
2023-09-17T11:11:49.775Z,5.93
2023-09-17T11:14:17.151Z,5.90
2023-09-17T11:16:47.869Z,5.50
2023-09-17T11:19:20.542Z,5.10
2023-09-17T11:22:08.141Z,5.93
2023-09-17T11:24:35.209Z,5.85
2023-09-17T11:27:12.795Z,5.85
2023-09-17T11:29:44.380Z,5.10
2023-09-17T11:32:13.012Z,5.93
2023-09-17T11:34:43.632Z,5.93
2023-09-17T11:37:10.600Z,5.63
2023-09-17T11:39:39.164Z,6.00
2023-09-17T11:42:11.167Z,5.35
2023-09-17T11:44:38.549Z,6.10
2023-09-17T11:47:08.556Z,5.38
2023-09-17T11:49:36.201Z,5.88
2023-09-17T11:52:13.073Z,5.90
2023-09-17T11:54:52.597Z,7.10
2023-09-17T11:57:26.837Z,5.70
2023-09-17T11:59:55.438Z,5.75
2023-09-17T12:02:24.090Z,5.60
2023-09-17T12:04:52.879Z,5.72
2023-09-17T12:07:20.532Z,5.60
2023-09-17T12:10:02.931Z,5.40
2023-09-17T12:12:33.159Z,6.20
2023-09-17T12:15:00.355Z,5.07
2023-09-17T12:17:28.242Z,5.85
2023-09-17T12:20:43.341Z,5.35
2023-09-17T12:23:24.205Z,5.50
2023-09-17T12:25:51.225Z,5.13
2023-09-17T12:28:27.527Z,5.90
2023-09-17T12:30:55.443Z,5.68
2023-09-17T12:33:23.407Z,5.63
2023-09-17T12:35:51.345Z,5.78
2023-09-17T12:38:18.375Z,5.43
2023-09-17T12:40:45.256Z,5.78
2023-09-17T12:43:12.109Z,5.25
2023-09-17T12:45:39.673Z,5.15
2023-09-17T12:48:07.042Z,5.38
2023-09-17T12:50:34.006Z,5.63
2023-09-17T12:53:01.466Z,5.38
2023-09-17T12:55:28.628Z,5.55
2023-09-17T12:57:55.775Z,5.57
2023-09-17T13:00:24.191Z,5.53
2023-09-17T13:02:55.581Z,5.65
2023-09-17T13:05:23.391Z,5.50
2023-09-17T13:07:50.782Z,5.40
2023-09-17T13:10:21.337Z,5.47
2023-09-17T13:12:49.138Z,5.50
2023-09-17T13:15:16.280Z,5.90
2023-09-17T13:17:43.190Z,5.40
2023-09-17T13:20:10.492Z,5.50
2023-09-17T13:22:37.623Z,5.10
2023-09-17T13:25:04.916Z,5.05
2023-09-17T13:27:31.875Z,5.78
2023-09-17T13:29:59.142Z,5.70
2023-09-17T13:32:27.363Z,5.00
2023-09-17T13:34:54.403Z,5.68
2023-09-17T13:37:21.773Z,5.55
2023-09-17T13:39:53.825Z,5.50
2023-09-17T13:42:21.768Z,5.45
2023-09-17T13:44:48.799Z,6.05
2023-09-17T13:47:15.743Z,5.35
2023-09-17T13:49:42.843Z,5.28
2023-09-17T13:52:10.426Z,5.50
2023-09-17T13:54:43.111Z,5.50
2023-09-17T13:57:10.235Z,5.28
2023-09-17T13:59:37.190Z,5.20
2023-09-17T14:02:05.176Z,5.53
2023-09-17T14:04:32.573Z,5.50
2023-09-17T14:06:59.694Z,5.60
2023-09-17T14:09:26.623Z,6.18
2023-09-17T14:11:53.563Z,6.10
2023-09-17T14:14:20.456Z,5.22
2023-09-17T14:16:47.539Z,5.45
2023-09-17T14:19:19.624Z,5.07
2023-09-17T14:21:47.888Z,5.40
2023-09-17T14:24:14.940Z,5.70
2023-09-17T14:26:42.048Z,5.38
2023-09-17T14:29:09.132Z,5.50
2023-09-17T14:31:38.427Z,5.10
2023-09-17T14:34:07.274Z,6.05
2023-09-17T14:36:34.231Z,5.35
2023-09-17T14:39:02.662Z,5.45
2023-09-17T14:41:31.213Z,5.60
2023-09-17T14:43:58.341Z,4.90
2023-09-17T14:46:25.553Z,5.50
2023-09-17T14:48:53.867Z,6.97
2023-09-17T14:51:21.395Z,5.57
2023-09-17T14:53:48.469Z,5.00
2023-09-17T14:56:16.798Z,4.85
2023-09-17T14:58:43.774Z,5.38
2023-09-17T15:01:17.635Z,4.97
2023-09-17T15:03:57.820Z,5.40
2023-09-17T15:06:24.902Z,5.05
2023-09-17T15:08:52.080Z,5.57
2023-09-17T15:11:19.393Z,5.32
2023-09-17T15:13:47.504Z,5.63
2023-09-17T15:16:15.184Z,5.05
2023-09-17T15:18:42.118Z,4.95
2023-09-17T15:21:09.001Z,5.30
2023-09-17T15:23:35.850Z,4.80
2023-09-17T15:26:02.841Z,4.78
2023-09-17T15:28:30.263Z,5.10
2023-09-17T15:30:57.365Z,5.78
2023-09-17T15:33:24.487Z,4.97
2023-09-17T15:35:53.313Z,5.15
2023-09-17T15:38:20.553Z,6.93
2023-09-17T15:40:56.191Z,5.53
2023-09-17T15:43:23.196Z,4.78
2023-09-17T15:45:50.127Z,5.82
2023-09-17T15:48:17.022Z,5.35
2023-09-17T15:50:44.435Z,5.53
2023-09-17T15:53:11.313Z,5.30
2023-09-17T15:55:38.285Z,4.80
2023-09-17T15:58:06.962Z,5.88
2023-09-17T16:00:33.825Z,5.35
2023-09-17T16:03:00.965Z,5.13
2023-09-17T16:05:28.537Z,4.85
2023-09-17T16:07:55.439Z,5.05
2023-09-17T16:10:24.034Z,5.18
2023-09-17T16:12:51.044Z,6.13
2023-09-17T16:15:18.363Z,4.85
2023-09-17T16:17:45.301Z,5.38
2023-09-17T16:20:12.354Z,4.97
2023-09-17T16:22:39.262Z,4.68
2023-09-17T16:25:09.288Z,5.15
2023-09-17T16:27:36.604Z,5.68
2023-09-17T16:30:05.228Z,5.65
2023-09-17T16:32:32.788Z,4.97
2023-09-17T16:34:59.897Z,5.75
2023-09-17T16:37:26.886Z,5.78
2023-09-17T16:39:54.350Z,5.30
2023-09-17T16:42:21.724Z,5.40
2023-09-17T16:44:49.220Z,5.32
2023-09-17T16:47:16.722Z,5.80
2023-09-17T16:49:45.997Z,5.40
2023-09-17T16:52:13.028Z,5.50
2023-09-17T16:54:41.624Z,5.78
2023-09-17T16:57:10.538Z,5.72
2023-09-17T16:59:37.847Z,5.45
2023-09-17T17:02:07.172Z,6.07
2023-09-17T17:04:34.566Z,5.80
2023-09-17T17:07:01.792Z,6.22
2023-09-17T17:09:28.656Z,6.18
2023-09-17T17:11:55.648Z,6.10
2023-09-17T17:14:24.983Z,5.85
2023-09-17T17:16:51.938Z,6.53
2023-09-17T17:19:18.804Z,6.07
2023-09-17T17:21:45.929Z,7.18
2023-09-17T17:24:13.895Z,6.93
2023-09-17T17:26:42.030Z,6.60
2023-09-17T17:29:08.956Z,6.50
2023-09-17T17:31:35.968Z,5.88
2023-09-17T17:34:02.866Z,6.60
2023-09-17T17:36:30.238Z,6.15
2023-09-17T17:38:57.248Z,5.78
2023-09-17T17:41:24.102Z,5.93
2023-09-17T17:43:51.912Z,6.15
2023-09-17T17:46:19.062Z,5.88
2023-09-17T17:48:46.236Z,6.45
2023-09-17T17:51:14.052Z,6.80
2023-09-17T17:53:40.914Z,6.25
2023-09-17T17:56:08.781Z,6.47
2023-09-17T17:58:35.836Z,6.70
2023-09-17T18:01:04.230Z,5.70
2023-09-17T18:03:31.717Z,6.45
2023-09-17T18:05:59.748Z,6.80
2023-09-17T18:08:27.183Z,6.55
2023-09-17T18:10:54.088Z,6.40
2023-09-17T18:13:21.161Z,5.55
2023-09-17T18:15:48.098Z,5.97
2023-09-17T18:18:16.686Z,7.47
2023-09-17T18:20:44.492Z,6.57
2023-09-17T18:23:11.552Z,6.53
2023-09-17T18:25:40.009Z,6.75
2023-09-17T18:28:10.591Z,6.60
2023-09-17T18:30:38.014Z,5.70
2023-09-17T18:33:07.063Z,6.15
2023-09-17T18:35:34.152Z,7.40
2023-09-17T18:38:03.498Z,6.30
2023-09-17T18:40:30.486Z,6.25
2023-09-17T18:42:57.365Z,6.20
2023-09-17T18:45:24.410Z,6.35
2023-09-17T18:47:51.309Z,6.10
2023-09-17T18:50:18.329Z,6.07
2023-09-17T18:52:45.262Z,6.30
2023-09-17T18:55:12.339Z,5.72
2023-09-17T18:57:40.868Z,6.20
2023-09-17T19:00:09.567Z,5.72
2023-09-17T19:02:41.009Z,6.40
2023-09-17T19:05:08.763Z,6.65
2023-09-17T19:07:36.109Z,6.53
2023-09-17T19:10:04.848Z,6.63
2023-09-17T19:12:31.740Z,6.10
2023-09-17T19:15:00.399Z,5.75
2023-09-17T19:17:28.883Z,5.90
2023-09-17T19:19:56.150Z,6.55
2023-09-17T19:22:23.916Z,6.57
2023-09-17T19:24:50.958Z,6.60
2023-09-17T19:27:17.836Z,6.50
2023-09-17T19:29:45.520Z,6.68
2023-09-17T19:32:13.900Z,7.60
2023-09-17T19:34:41.342Z,7.50
2023-09-17T19:37:09.296Z,7.10
2023-09-17T19:39:36.263Z,6.78
2023-09-17T19:42:03.123Z,6.80
2023-09-17T19:44:30.017Z,6.60
2023-09-17T19:46:59.841Z,7.40
2023-09-17T19:49:27.570Z,6.90
2023-09-17T19:51:55.258Z,6.40
2023-09-17T19:54:22.136Z,6.65
2023-09-17T19:56:49.280Z,6.82
2023-09-17T19:59:16.700Z,6.60
2023-09-17T20:01:47.503Z,6.70
2023-09-17T20:04:15.801Z,6.72
2023-09-17T20:06:53.918Z,7.13
2023-09-17T20:09:22.223Z,6.40
2023-09-17T20:11:49.462Z,7.13
2023-09-17T20:14:18.985Z,7.50
2023-09-17T20:16:46.064Z,7.28
2023-09-17T20:19:13.121Z,7.07
2023-09-17T20:21:40.799Z,7.50
2023-09-17T20:24:07.897Z,7.05
2023-09-17T20:26:37.443Z,7.25
2023-09-17T20:29:05.513Z,6.57
2023-09-17T20:31:32.883Z,6.70
2023-09-17T20:34:00.951Z,6.72
2023-09-17T20:36:27.835Z,6.32
2023-09-17T20:38:54.938Z,6.38
2023-09-17T20:41:24.178Z,6.30
2023-09-17T20:43:51.221Z,6.47
2023-09-17T20:46:18.503Z,8.10
2023-09-17T20:48:45.942Z,6.68
2023-09-17T20:51:12.842Z,5.85
2023-09-17T20:53:39.773Z,5.78
2023-09-17T20:56:06.691Z,5.05
2023-09-17T20:58:35.909Z,5.00
2023-09-17T21:01:03.104Z,5.13
2023-09-17T21:03:30.306Z,5.35
2023-09-17T21:05:57.214Z,5.47
2023-09-17T21:08:25.491Z,5.05
2023-09-17T21:10:52.603Z,6.00
2023-09-17T21:13:19.550Z,5.40
2023-09-17T21:15:46.491Z,5.20
2023-09-17T21:18:13.411Z,5.75
2023-09-17T21:20:41.019Z,5.47
2023-09-17T21:23:09.007Z,5.97
2023-09-17T21:25:36.045Z,6.32
2023-09-17T21:28:03.677Z,5.60
2023-09-17T21:30:31.959Z,6.07
2023-09-17T21:32:59.257Z,5.70
2023-09-17T21:35:26.452Z,5.70
2023-09-17T21:37:53.434Z,5.78
2023-09-17T21:40:20.316Z,6.53
2023-09-17T21:42:47.295Z,6.07
2023-09-17T21:45:14.550Z,5.97
2023-09-17T21:47:41.513Z,6.22
2023-09-17T21:50:09.138Z,5.82
2023-09-17T21:52:36.288Z,5.78
2023-09-17T21:55:03.307Z,6.32
2023-09-17T21:57:30.176Z,6.32
2023-09-17T21:59:57.033Z,6.15
2023-09-17T22:02:25.505Z,6.13
2023-09-17T22:04:52.571Z,6.20
2023-09-17T22:07:19.619Z,5.90
2023-09-17T22:09:46.546Z,5.90
2023-09-17T22:12:15.554Z,5.70
2023-09-17T22:14:42.476Z,5.80
2023-09-17T22:17:11.834Z,6.15
2023-09-17T22:19:41.801Z,5.35
2023-09-17T22:22:09.008Z,5.10
2023-09-17T22:24:36.351Z,5.25
2023-09-17T22:27:03.876Z,4.97
2023-09-17T22:29:30.865Z,5.22
2023-09-17T22:31:57.843Z,5.20
2023-09-17T22:34:24.792Z,5.50
2023-09-17T22:36:51.688Z,5.50
2023-09-17T22:39:18.644Z,5.57
2023-09-17T22:41:45.542Z,5.45
2023-09-17T22:44:23.622Z,5.03
2023-09-17T22:46:52.265Z,5.25
2023-09-17T22:49:19.360Z,5.20
2023-09-17T22:51:46.176Z,4.90
2023-09-17T22:54:13.156Z,5.10
2023-09-17T22:56:40.441Z,4.82
2023-09-17T22:59:07.383Z,5.20
2023-09-17T23:01:34.383Z,5.68
2023-09-17T23:04:01.269Z,5.03
2023-09-17T23:06:29.158Z,4.57
2023-09-17T23:08:59.547Z,5.47
2023-09-17T23:11:26.427Z,5.13
2023-09-17T23:13:53.471Z,5.30
2023-09-17T23:16:20.536Z,4.38
2023-09-17T23:18:47.580Z,4.90
2023-09-17T23:21:16.412Z,4.53
2023-09-17T23:23:44.193Z,5.00
2023-09-17T23:26:13.567Z,4.88
2023-09-17T23:28:41.195Z,4.95
2023-09-17T23:31:11.314Z,4.63
2023-09-17T23:33:38.290Z,4.53
2023-09-17T23:36:05.680Z,4.80
2023-09-17T23:38:32.865Z,4.88
2023-09-17T23:40:59.828Z,5.07
2023-09-17T23:43:27.225Z,4.95
2023-09-17T23:45:54.128Z,4.70
2023-09-17T23:48:21.108Z,4.97
2023-09-17T23:50:51.727Z,4.78
2023-09-17T23:53:18.705Z,4.88
2023-09-17T23:55:49.403Z,4.60
2023-09-17T23:58:19.563Z,4.78
